This is the latest recevied weather packets stored in our database for station/object IU1OPQ-3. If no packets are shown the sender has not sent any weather packets the latest 10 day(s).
| Time | Temp. | Humidity | Pressure | Rain* | Wind** | Luminosity | Snow |
|---|---|---|---|---|---|---|---|
| 1778095802 | 12.22° C | 89% | 1008.3 hPa | 1.27 mm | - | - | - |
| 1778094901 | 11.67° C | 90% | 1007.7 hPa | 1.27 mm | - | - | - |
| 1778094000 | 13.33° C | 81% | 1007.8 hPa | 0 mm | - | - | - |
| 1778093101 | 13.89° C | 79% | 1007.4 hPa | 0 mm | - | - | - |
| 1778092200 | 13.89° C | 79% | 1007.2 hPa | 0 mm | - | - | - |
| 1778091301 | 14.44° C | 80% | 1006.8 hPa | 0 mm | - | - | - |
| 1778090401 | 14.44° C | 81% | 1006.6 hPa | 0 mm | - | - | - |
| 1778088600 | 14.44° C | 81% | 1006.4 hPa | 0 mm | - | - | - |
| 1778087701 | 14.44° C | 80% | 1006 hPa | 0 mm | - | - | - |
| 1778086801 | 14.44° C | 80% | 1005.9 hPa | 0 mm | - | - | - |
| 1778085901 | 15° C | 77% | 1006 hPa | 0 mm | - | - | - |
| 1778085000 | 15.56° C | 73% | 1005.8 hPa | 1.02 mm | - | - | - |
| 1778084101 | 16.11° C | 72% | 1005.9 hPa | 1.02 mm | - | - | - |
| 1778083201 | 15° C | 77% | 1006.1 hPa | 1.02 mm | - | - | - |
| 1778082301 | 15.56° C | 78% | 1006.4 hPa | 1.02 mm | - | - | - |
| 1778081401 | 16.11° C | 70% | 1006.6 hPa | 0 mm | - | - | - |
| 1778080501 | 16.67° C | 68% | 1006.3 hPa | 0 mm | - | - | - |
| 1778079601 | 17.22° C | 67% | 1006.3 hPa | 0 mm | - | - | - |
| 1778078701 | 17.78° C | 63% | 1006.1 hPa | 0 mm | - | - | - |
| 1778077800 | 18.33° C | 60% | 1005.7 hPa | 0 mm | - | - | - |
| 1778076901 | 18.33° C | 61% | 1005.8 hPa | 0 mm | - | - | - |
| 1778076000 | 18.33° C | 62% | 1006.3 hPa | 0 mm | - | - | - |
| 1778075100 | 18.33° C | 62% | 1006.3 hPa | 0 mm | - | - | - |
| 1778074201 | 18.33° C | 63% | 1006.6 hPa | 0 mm | - | - | - |
| 1778073300 | 18.33° C | 65% | 1006.5 hPa | 0 mm | - | - | - |
* Rain latest hour (hover to see other rain measurements)
** Current wind speed in m/s (hover to see current wind gust speed)